Happy Valentine's Day! 

Flight Track Log - Related Links

Times and Time Zones

All times are in EDT time to prevent confusion due to time zone crossing. See the N500NM flight status page for this flight to view local times or setup timezone preferences in your user account.


Time Position Orientation Groundspeed Altitude Reporting Facility
EDT Latitude Longitude Course Direction KTS MPH feet Rate Location/Type
Thu 01:51:02 PM 30.6347 -88.2269 300° West 97 112 2,600  Level Houston Center
Thu 01:52:04 PM 30.6261 -88.2614 254° West 120 138 3,600 1,016 Climbing Houston Center
Thu 01:53:06 PM 30.6600 -88.2950 320° Northwest 133 153 4,700 968 Climbing Houston Center
Thu 01:54:00 PM 30.7806 -88.4714 297° West  Level FlightAware Approximate
Thu 01:54:08 PM 30.6850 -88.3306 309° West 142 163 5,600  Level Houston Center
Thu 01:55:00 PM 30.8009 -88.5185 300° West  Level FlightAware Approximate
Thu 01:55:11 PM 30.7036 -88.3689 299° West 141 162 6,500  Level Houston Center
Thu 01:56:00 PM 30.8237 -88.5641 300° West  Level FlightAware Approximate
Thu 01:56:13 PM 30.7203 -88.4067 297° West 136 157 7,300  Level Houston Center
Thu 01:57:15 PM 30.7381 -88.4458 298° West 135 155 8,100 774 Climbing Houston Center
Thu 01:58:17 PM 30.7553 -88.4850 297° West 135 155 8,900 774 Climbing Houston Center
Thu 01:59:19 PM 30.7747 -88.5289 297° West 134 154 9,700 768 Climbing Houston Center
Thu 02:00:22 PM 30.7908 -88.5650 297° West 130 150 10,500 768 Climbing Houston Center
Thu 02:01:24 PM 30.8072 -88.6006 298° West 130 150 11,300 677 Climbing Houston Center
Thu 02:02:26 PM 30.8228 -88.6361 297° West 128 147 11,900 581 Climbing Houston Center
Thu 02:03:28 PM 30.8386 -88.6719 297° West 127 146 12,500 629 Climbing Houston Center
Thu 02:04:30 PM 30.8550 -88.7083 298° West 127 146 13,200 672 Climbing Houston Center
Thu 02:05:33 PM 30.8753 -88.7528 298° West 128 147 13,900 624 Climbing Houston Center
Thu 02:06:35 PM 30.8922 -88.7906 298° West 128 147 14,500 581 Climbing Houston Center
Thu 02:07:37 PM 30.9086 -88.8286 297° West 129 148 15,100 581 Climbing Houston Center
Thu 02:08:39 PM 30.9261 -88.8672 298° West 130 150 15,700 672 Climbing Houston Center
Thu 02:09:42 PM 30.9428 -88.9058 297° West 133 153 16,500 864 Climbing Houston Center
Thu 02:10:44 PM 30.9631 -88.9478 299° West 131 151 17,500 774 Climbing Houston Center
Thu 02:11:46 PM 30.9756 -88.9789 295° West 116 133 18,100 726 Climbing Houston Center
Thu 02:12:48 PM 30.9889 -89.0100 297° West 110 127 19,000 774 Climbing Houston Center
Thu 02:13:50 PM 31.0047 -89.0425 300° West 112 129 19,700 624 Climbing Houston Center
Thu 02:14:53 PM 31.0192 -89.0778 296° West 118 136 20,300 624 Climbing Houston Center
Thu 02:15:55 PM 31.0383 -89.1194 298° West 121 139 21,000 677 Climbing Houston Center
Thu 02:16:57 PM 31.0536 -89.1558 296° West 124 143 21,700 484 Climbing Houston Center
Thu 02:17:59 PM 31.0697 -89.1914 298° West 124 143 22,000 145 Climbing Houston Center
Thu 02:19:01 PM 31.0881 -89.2342 297° West 143 165 22,000  Level Houston Center
Thu 02:20:04 PM 31.1081 -89.2794 297° West 152 175 22,000  Level Houston Center
Thu 02:21:36 PM 31.1397 -89.3517 297° West 152 175 22,000  Level Memphis Center
Thu 02:22:08 PM 31.1508 -89.3769 297° West 154 177 22,000  Level Houston Center
Thu 02:23:10 PM 31.1708 -89.4208 298° West 154 177 22,000  Level Houston Center
Thu 02:24:12 PM 31.1900 -89.4653 297° West 154 177 22,000  Level Houston Center
Thu 02:25:15 PM 31.2092 -89.5100 297° West 155 178 22,000  Level Houston Center
Thu 02:26:17 PM 31.2325 -89.5633 297° West 154 177 22,000  Level Houston Center
Thu 02:27:19 PM 31.2525 -89.6089 297° West 156 180 22,000  Level Houston Center
Thu 02:28:21 PM 31.2722 -89.6542 297° West 156 180 22,000  Level Houston Center
Thu 02:29:24 PM 31.2914 -89.6997 296° West 157 181 22,000  Level Houston Center
Thu 02:30:26 PM 31.3117 -89.7439 298° West 156 180 22,000  Level Houston Center
Thu 02:31:28 PM 31.3311 -89.7892 297° West 156 180 22,000  Level Houston Center
Thu 02:32:30 PM 31.3542 -89.8425 297° West 155 178 22,000  Level Houston Center
Thu 02:33:33 PM 31.3733 -89.8872 297° West 157 181 22,000  Level Houston Center
Thu 02:34:34 PM 31.3922 -89.9328 296° West 156 180 22,000  Level Houston Center
Thu 02:35:37 PM 31.4119 -89.9772 297° West 155 178 22,000  Level Houston Center
Thu 02:36:39 PM 31.4306 -90.0219 296° West 155 178 22,000  Level Houston Center
Thu 02:37:41 PM 31.4542 -90.0775 296° West 157 181 22,000  Level Houston Center
Thu 02:38:43 PM 31.4744 -90.1239 297° West 158 182 22,000  Level Houston Center
Thu 02:39:45 PM 31.4939 -90.1706 296° West 159 183 22,000  Level Houston Center
Thu 02:40:48 PM 31.5144 -90.2172 297° West 159 183 22,000  Level Houston Center
Thu 02:41:50 PM 31.5353 -90.2639 298° West 161 185 22,000  Level Houston Center
Thu 02:42:52 PM 31.5583 -90.3200 296° West 161 185 22,000  Level Houston Center
Thu 02:43:54 PM 31.5789 -90.3658 298° West 160 184 22,000  Level Houston Center
Thu 02:44:56 PM 31.5981 -90.4131 295° West 160 184 22,000  Level Houston Center
Thu 02:45:59 PM 31.6183 -90.4600 297° West 160 184 22,000  Level Houston Center
Thu 02:47:01 PM 31.6383 -90.5061 297° West 160 184 22,000  Level Houston Center
Thu 02:48:03 PM 31.6569 -90.5525 295° West 159 183 22,000  Level Houston Center
Thu 02:49:05 PM 31.6806 -90.6078 297° West 159 183 22,000  Level Houston Center
Thu 02:50:08 PM 31.7003 -90.6539 297° West 159 183 22,000  Level Houston Center
Thu 02:51:10 PM 31.7203 -90.6992 297° West 158 182 22,000  Level Houston Center
Thu 02:52:12 PM 31.7392 -90.7456 296° West 158 182 22,000  Level Houston Center
Thu 02:53:14 PM 31.7586 -90.7922 296° West 158 182 22,000  Level Houston Center
Thu 02:54:16 PM 31.7822 -90.8492 296° West 161 185 22,000  Level Houston Center
Thu 02:55:19 PM 31.8031 -90.8958 298° West 161 185 22,000  Level Houston Center
Thu 02:56:22 PM 31.8219 -90.9411 296° West 161 185 22,000  Level Houston Center
Thu 02:57:23 PM 31.8417 -90.9892 296° West 161 185 22,000  Level Houston Center
Thu 02:58:25 PM 31.8650 -91.0450 296° West 161 185 22,000  Level Houston Center
Thu 02:59:27 PM 31.8844 -91.0922 296° West 160 184 22,000  Level Houston Center
Thu 03:00:30 PM 31.9058 -91.1406 298° West 162 186 22,000  Level Houston Center
Thu 03:01:32 PM 31.9247 -91.1875 295° West 161 185 22,000  Level Houston Center
Thu 03:02:34 PM 31.9442 -91.2342 296° West 161 185 22,000  Level Houston Center
Thu 03:03:36 PM 31.9636 -91.2803 296° West 160 184 22,000  Level Houston Center
Thu 03:04:39 PM 31.9878 -91.3383 296° West 160 184 22,000  Level Houston Center
Thu 03:05:41 PM 32.0064 -91.3839 296° West 158 182 22,000  Level Houston Center
Thu 03:06:43 PM 32.0256 -91.4314 295° West 160 184 22,000  Level Houston Center
Thu 03:07:45 PM 32.0453 -91.4775 297° West 158 182 22,000  Level Houston Center
Thu 03:08:47 PM 32.0642 -91.5225 296° West 157 181 22,000  Level Houston Center
Thu 03:09:49 PM 32.0856 -91.5767 295° West 156 180 22,000  Level Houston Center
Thu 03:10:52 PM 32.0942 -91.6236 282° West 147 169 22,000  Level Houston Center
Thu 03:11:54 PM 32.1031 -91.6717 282° West 147 169 22,000  Level Houston Center
Thu 03:12:56 PM 32.1108 -91.7183 281° West 147 169 22,000  Level Houston Center
Thu 03:13:58 PM 32.1194 -91.7678 282° West 149 171 22,000  Level Houston Center
Thu 03:15:00 PM 32.1306 -91.8247 283° West 149 171 22,000  Level Houston Center
Thu 03:16:03 PM 32.1397 -91.8728 283° West 149 171 22,000  Level Houston Center
Thu 03:17:05 PM 32.1486 -91.9208 282° West 149 171 22,000 194 Level Houston Center
Thu 03:18:07 PM 32.1569 -91.9644 283° West 139 160 22,400 435 Climbing Houston Center
Thu 03:19:09 PM 32.1658 -92.0042 285° West 129 148 22,900 432 Climbing Houston Center
Thu 03:20:12 PM 32.1753 -92.0514 283° West 128 147 23,300 384 Climbing Houston Center
Thu 03:21:14 PM 32.1817 -92.0928 280° West 126 145 23,700 339 Climbing Houston Center
Thu 03:22:16 PM 32.1900 -92.1369 283° West 133 153 24,000 145 Climbing Houston Center
Thu 03:23:18 PM 32.1972 -92.1822 281° West 137 158 24,000  Level Houston Center
Thu 03:24:56 PM 32.2133 -92.2608 284° West 149 171 24,000  Level Fort Worth Center
Thu 03:25:58 PM 32.2214 -92.3111 281° West 154 177 24,000  Level Fort Worth Center
Thu 03:27:00 PM 32.2344 -92.3722 284° West 157 181 24,000  Level Fort Worth Center
Thu 03:28:02 PM 32.2542 -92.4222 295° West 165 190 24,000  Level Fort Worth Center
Thu 03:29:04 PM 32.2844 -92.4669 309° West 171 197 24,000  Level Fort Worth Center
Thu 03:30:06 PM 32.3144 -92.5106 309° West 172 198 24,000  Level Fort Worth Center
Thu 03:31:09 PM 32.3447 -92.5547 309° West 172 198 24,000  Level Fort Worth Center
Thu 03:32:11 PM 32.3808 -92.6081 309° West 172 198 24,000  Level Fort Worth Center
Thu 03:33:13 PM 32.4078 -92.6450 311° West 172 198 24,000  Level Fort Worth Center
Thu 03:34:15 PM 32.4431 -92.6997 307° West 173 199 24,000  Level Fort Worth Center
Thu 03:35:18 PM 32.4756 -92.7425 312° West 173 199 24,000  Level Fort Worth Center
Thu 03:36:20 PM 32.5106 -92.7819 316° Northwest 174 200 24,000  Level Fort Worth Center
Thu 03:37:22 PM 32.5475 -92.8211 318° Northwest 174 200 24,000  Level Fort Worth Center
Thu 03:38:24 PM 32.5847 -92.8600 319° Northwest 178 205 24,000  Level Fort Worth Center
Thu 03:39:26 PM 32.6203 -92.9017 315° West 178 205 24,000  Level Fort Worth Center
Thu 03:40:28 PM 32.6631 -92.9461 319° Northwest 177 204 24,000  Level Fort Worth Center
Thu 03:41:30 PM 32.6975 -92.9833 318° Northwest 171 197 24,000  Level Fort Worth Center
Thu 03:42:32 PM 32.7331 -93.0200 319° Northwest 169 194 24,000  Level Fort Worth Center
Thu 03:43:34 PM 32.7708 -93.0603 318° Northwest 170 196 24,000  Level Fort Worth Center
Thu 03:44:37 PM 32.8053 -93.0947 320° Northwest 170 196 24,000 -144 Level Fort Worth Center
Thu 03:45:39 PM 32.8436 -93.1317 321° Northwest 174 200 23,700 -484 Descending Fort Worth Center
Thu 03:46:41 PM 32.8933 -93.1825 319° Northwest 198 228 23,000 -629 Descending Fort Worth Center
Thu 03:47:43 PM 32.9325 -93.2261 317° Northwest 197 227 22,400 -484 Descending Fort Worth Center
Thu 03:48:45 PM 32.9558 -93.2783 298° West 179 206 22,000 -194 Descending Fort Worth Center
Thu 03:49:47 PM 32.9981 -93.3158 323° Northwest 185 213 22,000  Level Fort Worth Center
Thu 03:50:49 PM 33.0375 -93.3500 324° Northwest 178 205 22,000  Level Fort Worth Center
Thu 03:51:51 PM 33.0819 -93.3925 321° Northwest 173 199 22,000  Level Fort Worth Center
Thu 03:52:54 PM 33.0736 -93.4208 251° West 165 190 22,000  Level Fort Worth Center
Thu 03:53:56 PM 33.0481 -93.3597 117° Southeast 219 252 22,000  Level Fort Worth Center
Thu 03:54:58 PM 33.0253 -93.2919 112° Southeast 221 254 22,000  Level Fort Worth Center
Thu 03:56:00 PM 32.9936 -93.2331 123° Southeast 213 245 22,000 242 Level Fort Worth Center
Thu 03:57:02 PM 32.9675 -93.1706 116° Southeast 210 242 22,500 339 Climbing Fort Worth Center
Thu 03:58:04 PM 32.9375 -93.1047 118° Southeast 192 221 22,700 242 Climbing Fort Worth Center
Thu 03:59:06 PM 32.9217 -93.0386 106° East 208 239 23,000 145 Climbing Fort Worth Center
Thu 04:00:08 PM 32.9039 -92.9656 106° East 226 260 23,000  Level Fort Worth Center
Thu 04:01:10 PM 32.8831 -92.8806 106° East 241 277 23,000  Level Fort Worth Center
Thu 04:02:12 PM 32.8650 -92.8094 107° East 249 287 23,000  Level Fort Worth Center
Thu 04:03:15 PM 32.8431 -92.7306 108° East 251 289 23,000  Level Fort Worth Center
Thu 04:04:17 PM 32.8208 -92.6333 105° East 252 290 23,000  Level Fort Worth Center
Thu 04:05:19 PM 32.8036 -92.5519 104° East 252 290 23,000  Level Fort Worth Center
Thu 04:06:21 PM 32.7792 -92.4753 111° Southeast 248 285 23,000  Level Fort Worth Center
Thu 04:07:23 PM 32.7475 -92.4078 119° Southeast 235 270 23,000  Level Fort Worth Center
Thu 04:08:25 PM 32.7147 -92.3397 120° Southeast 235 270 23,000  Level Fort Worth Center
Thu 04:09:27 PM 32.6761 -92.2589 120° Southeast 236 272 23,000  Level Fort Worth Center
Thu 04:10:29 PM 32.6475 -92.1944 118° Southeast 232 267 23,000 387 Level Fort Worth Center
Thu 04:11:31 PM 32.6181 -92.1353 121° Southeast 217 250 23,800 522 Climbing Fort Worth Center
Thu 04:13:10 PM 32.5706 -92.0353 119° Southeast 211 243 24,400 438 Climbing Memphis Center
Thu 04:13:48 PM 32.5494 -91.9881 118° Southeast 212 244 24,800 360 Climbing Fort Worth Center
Thu 04:14:50 PM 32.5183 -91.9236 120° Southeast 218 251 25,000 97 Climbing Fort Worth Center
Thu 04:15:52 PM 32.4861 -91.8547 119° Southeast 229 264 25,000  Level Fort Worth Center
Thu 04:16:54 PM 32.4531 -91.7853 119° Southeast 235 270 25,000  Level Fort Worth Center
Thu 04:17:56 PM 32.4197 -91.7142 119° Southeast 240 276 25,000  Level Fort Worth Center
Thu 04:18:58 PM 32.3856 -91.6425 119° Southeast 245 282 25,000  Level Fort Worth Center
Thu 04:20:01 PM 32.3442 -91.5569 120° Southeast 245 282 25,000  Level Fort Worth Center
Thu 04:21:03 PM 32.3106 -91.4858 119° Southeast 247 284 25,000  Level Fort Worth Center
Thu 04:22:11 PM 32.2772 -91.4175 120° Southeast 249 287 25,000  Level Houston Center
Thu 04:23:13 PM 32.2356 -91.3328 120° Southeast 249 287 25,000  Level Houston Center
Thu 04:24:15 PM 32.2019 -91.2614 119° Southeast 249 287 25,000  Level Houston Center
Thu 04:25:17 PM 32.1678 -91.1900 119° Southeast 249 287 25,000  Level Houston Center
Thu 04:26:19 PM 32.1331 -91.1192 120° Southeast 250 288 25,000  Level Houston Center
Thu 04:27:22 PM 32.0997 -91.0481 119° Southeast 249 287 25,000  Level Houston Center
Thu 04:28:24 PM 32.0647 -90.9775 120° Southeast 250 288 25,000  Level Houston Center
Thu 04:29:26 PM 32.0231 -90.8917 120° Southeast 250 288 25,000  Level Houston Center
Thu 04:30:28 PM 31.9886 -90.8208 120° Southeast 250 288 25,000  Level Houston Center
Thu 04:31:30 PM 31.9531 -90.7472 120° Southeast 250 288 25,000  Level Houston Center
Thu 04:32:32 PM 31.9186 -90.6764 120° Southeast 250 288 25,000  Level Houston Center
Thu 04:33:35 PM 31.8844 -90.6067 120° Southeast 249 287 25,000  Level Houston Center
Thu 04:34:37 PM 31.8508 -90.5378 120° Southeast 247 284 25,000  Level Houston Center
Thu 04:35:39 PM 31.8169 -90.4678 120° Southeast 247 284 25,000  Level Houston Center
Thu 04:36:41 PM 31.7756 -90.3850 120° Southeast 246 283 25,000  Level Houston Center
Thu 04:37:43 PM 31.7411 -90.3153 120° Southeast 245 282 25,000  Level Houston Center
Thu 04:38:45 PM 31.7069 -90.2475 121° Southeast 244 281 25,000  Level Houston Center
Thu 04:39:48 PM 31.6736 -90.1781 119° Southeast 244 281 25,000  Level Houston Center
Thu 04:40:50 PM 31.6392 -90.1083 120° Southeast 245 282 25,000  Level Houston Center
Thu 04:41:52 PM 31.5972 -90.0250 121° Southeast 246 283 25,000  Level Houston Center
Thu 04:42:54 PM 31.5619 -89.9542 120° Southeast 249 287 25,000  Level Houston Center
Thu 04:43:56 PM 31.5333 -89.8817 115° Southeast 249 287 25,000  Level Houston Center
Thu 04:44:58 PM 31.5225 -89.7992 99° East 257 296 25,000 -144 Level Houston Center
Thu 04:46:01 PM 31.5108 -89.7158 99° East 257 296 24,700 -432 Descending Houston Center
Thu 04:47:03 PM 31.4975 -89.6289 100° East 266 306 24,100 -581 Descending Houston Center
Thu 04:48:05 PM 31.4828 -89.5339 100° East 274 315 23,500 -677 Descending Houston Center
Thu 04:49:07 PM 31.4697 -89.4433 100° East 278 320 22,700 -871 Descending Houston Center
Thu 04:50:09 PM 31.4553 -89.3331 99° East 284 327 21,700 -864 Descending Houston Center
Thu 04:51:12 PM 31.4425 -89.2408 99° East 285 328 20,900 -768 Descending Houston Center
Thu 04:52:14 PM 31.4300 -89.1486 99° East 285 328 20,100 -774 Descending Houston Center
Thu 04:53:16 PM 31.4175 -89.0592 99° East 284 327 19,300 -774 Descending Houston Center
Thu 04:54:18 PM 31.3853 -88.9833 116° Southeast 263 303 18,500 -774 Descending Houston Center
Thu 04:55:20 PM 31.3331 -88.9300 139° Southeast 251 289 17,700 -871 Descending Houston Center
Thu 04:56:22 PM 31.2736 -88.8653 137° Southeast 248 285 16,700 -960 Descending Houston Center
Thu 04:57:25 PM 31.2239 -88.8117 137° Southeast 247 284 15,700 -960 Descending Houston Center
Thu 04:58:27 PM 31.1753 -88.7594 137° Southeast 243 280 14,700 -968 Descending Houston Center
Thu 04:59:29 PM 31.1267 -88.7064 137° Southeast 241 277 13,700 -919 Descending Houston Center
Thu 05:00:31 PM 31.0800 -88.6564 137° Southeast 234 269 12,800 -919 Descending Houston Center
Thu 05:01:33 PM 31.0256 -88.5983 138° Southeast 225 259 11,800 -864 Descending Houston Center
Thu 05:02:36 PM 30.9828 -88.5525 137° Southeast 215 247 11,000 -768 Descending Houston Center
Thu 05:03:38 PM 30.9417 -88.5081 137° Southeast 208 239 10,200 -629 Descending Houston Center
Thu 05:04:40 PM 30.9025 -88.4644 136° Southeast 202 232 9,700 -581 Descending Houston Center
Thu 05:05:42 PM 30.8631 -88.4700 187° South 186 214 9,000 -823 Descending Houston Center
Thu 05:06:44 PM 30.8281 -88.5158 228° Southwest 167 192 8,000 -919 Descending Houston Center
Thu 05:07:46 PM 30.8525 -88.5506 309° West 179 206 7,100 -864 Descending Houston Center
Thu 05:08:49 PM 30.8711 -88.4969 68° East 188 216 6,200 -857 Descending Houston Center
Thu 05:09:52 PM 30.8653 -88.4383 97° East 188 216 5,300 -629 Descending Houston Center
Thu 05:10:53 PM 30.8536 -88.3850 104° East 177 204 4,900 -732 Descending Houston Center
Thu 05:11:55 PM 30.8158 -88.3450 138° Southeast 166 191 3,800 -968 Descending Houston Center
Thu 05:12:57 PM 30.7803 -88.3144 144° Southeast 163 188 2,900 -960 Descending Houston Center
Thu 05:14:00 PM 30.7469 -88.2911 149° Southeast 152 175 1,800 -1,008 Descending Houston Center
Thu 05:15:02 PM 30.7214 -88.2692 144° Southeast 133 153 800 -677 Descending Houston Center
Thu 05:16:04 PM 30.6961 -88.2483 145° Southeast 119 137 400 -387 Descending Houston Center
Thu 05:18:00 PM 30.6914 -88.2428 139° Southeast  Level Estimated

Login

Don't have an account? Register now (free) for customized features, flight alerts, and more!